sensor_id;sensor_type;location;lat;lon;timestamp;pressure;altitude;pressure_sealevel;temperature;humidity
49055;BME280;35405;52.344;14.530;2024-01-30T00:00:52;102363.50;;;4.24;63.81
49055;BME280;35405;52.344;14.530;2024-01-30T00:03:18;102363.56;;;4.25;63.98
49055;BME280;35405;52.344;14.530;2024-01-30T00:05:44;102358.25;;;4.22;64.67
49055;BME280;35405;52.344;14.530;2024-01-30T00:08:09;102366.44;;;4.34;64.13
49055;BME280;35405;52.344;14.530;2024-01-30T00:10:35;102370.88;;;4.37;64.13
49055;BME280;35405;52.344;14.530;2024-01-30T00:13:01;102364.94;;;4.41;64.34
49055;BME280;35405;52.344;14.530;2024-01-30T00:15:27;102371.78;;;4.39;64.53
49055;BME280;35405;52.344;14.530;2024-01-30T00:17:53;102371.13;;;4.45;64.36
49055;BME280;35405;52.344;14.530;2024-01-30T00:20:18;102372.88;;;4.46;64.06
49055;BME280;35405;52.344;14.530;2024-01-30T00:22:43;102365.94;;;4.45;63.66
49055;BME280;35405;52.344;14.530;2024-01-30T00:25:08;102374.53;;;4.44;64.02
49055;BME280;35405;52.344;14.530;2024-01-30T00:27:34;102374.53;;;4.44;64.04
49055;BME280;35405;52.344;14.530;2024-01-30T00:29:59;102375.97;;;4.35;64.25
49055;BME280;35405;52.344;14.530;2024-01-30T00:32:25;102375.16;;;4.36;64.38
49055;BME280;35405;52.344;14.530;2024-01-30T00:34:50;102379.53;;;4.37;64.27
49055;BME280;35405;52.344;14.530;2024-01-30T00:37:15;102377.84;;;4.39;63.92
49055;BME280;35405;52.344;14.530;2024-01-30T00:39:40;102380.41;;;4.38;64.53
49055;BME280;35405;52.344;14.530;2024-01-30T00:42:06;102378.69;;;4.38;64.34
49055;BME280;35405;52.344;14.530;2024-01-30T00:44:31;102379.56;;;4.39;64.09
49055;BME280;35405;52.344;14.530;2024-01-30T00:46:59;102376.97;;;4.39;64.29
49055;BME280;35405;52.344;14.530;2024-01-30T00:49:24;102386.41;;;4.37;64.49
49055;BME280;35405;52.344;14.530;2024-01-30T00:51:50;102376.84;;;4.36;64.54
49055;BME280;35405;52.344;14.530;2024-01-30T00:54:15;102375.94;;;4.34;64.55
49055;BME280;35405;52.344;14.530;2024-01-30T00:56:40;102381.13;;;4.34;64.90
49055;BME280;35405;52.344;14.530;2024-01-30T00:59:05;102376.72;;;4.31;64.40
49055;BME280;35405;52.344;14.530;2024-01-30T01:01:31;102374.97;;;4.30;64.36
49055;BME280;35405;52.344;14.530;2024-01-30T01:03:56;102376.72;;;4.31;64.20
49055;BME280;35405;52.344;14.530;2024-01-30T01:06:21;102379.34;;;4.33;64.50
49055;BME280;35405;52.344;14.530;2024-01-30T01:08:46;102387.22;;;4.36;65.03
49055;BME280;35405;52.344;14.530;2024-01-30T01:11:12;102373.31;;;4.32;65.05
49055;BME280;35405;52.344;14.530;2024-01-30T01:13:37;102372.41;;;4.32;64.75
49055;BME280;35405;52.344;14.530;2024-01-30T01:16:02;102377.66;;;4.33;64.69
49055;BME280;35405;52.344;14.530;2024-01-30T01:18:28;102377.59;;;4.32;64.93
49055;BME280;35405;52.344;14.530;2024-01-30T01:20:54;102372.25;;;4.27;65.25
49055;BME280;35405;52.344;14.530;2024-01-30T01:23:19;102367.94;;;4.28;65.16
49055;BME280;35405;52.344;14.530;2024-01-30T01:25:44;102368.88;;;4.30;65.10
49055;BME280;35405;52.344;14.530;2024-01-30T01:28:09;102361.06;;;4.28;65.49
49055;BME280;35405;52.344;14.530;2024-01-30T01:30:35;102371.63;;;4.34;65.17
49055;BME280;35405;52.344;14.530;2024-01-30T01:33:00;102370.72;;;4.32;64.84
49055;BME280;35405;52.344;14.530;2024-01-30T01:35:27;102378.31;;;4.28;65.04
49055;BME280;35405;52.344;14.530;2024-01-30T01:37:53;102377.47;;;4.29;65.08
49055;BME280;35405;52.344;14.530;2024-01-30T01:40:23;102364.75;;;4.35;65.05
49055;BME280;35405;52.344;14.530;2024-01-30T01:42:49;102374.22;;;4.34;65.07
49055;BME280;35405;52.344;14.530;2024-01-30T01:45:15;102373.25;;;4.31;65.54
49055;BME280;35405;52.344;14.530;2024-01-30T01:47:40;102374.84;;;4.27;64.65
49055;BME280;35405;52.344;14.530;2024-01-30T01:50:06;102369.72;;;4.29;65.02
49055;BME280;35405;52.344;14.530;2024-01-30T01:52:32;102365.31;;;4.26;65.22
49055;BME280;35405;52.344;14.530;2024-01-30T01:54:57;102364.53;;;4.29;65.13
49055;BME280;35405;52.344;14.530;2024-01-30T01:57:23;102370.59;;;4.29;65.36
49055;BME280;35405;52.344;14.530;2024-01-30T01:59:48;102378.31;;;4.28;65.42
49055;BME280;35405;52.344;14.530;2024-01-30T02:02:14;102368.81;;;4.28;65.16
49055;BME280;35405;52.344;14.530;2024-01-30T02:04:40;102374.00;;;4.28;65.47
49055;BME280;35405;52.344;14.530;2024-01-30T02:07:06;102364.25;;;4.21;65.78
49055;BME280;35405;52.344;14.530;2024-01-30T02:09:31;102362.47;;;4.19;65.90
49055;BME280;35405;52.344;14.530;2024-01-30T02:11:57;102359.81;;;4.17;65.86
49055;BME280;35405;52.344;14.530;2024-01-30T02:14:22;102356.19;;;4.12;65.85
49055;BME280;35405;52.344;14.530;2024-01-30T02:16:47;102356.28;;;4.15;65.61
49055;BME280;35405;52.344;14.530;2024-01-30T02:19:15;102357.16;;;4.16;65.95
49055;BME280;35405;52.344;14.530;2024-01-30T02:21:40;102354.66;;;4.17;65.53
49055;BME280;35405;52.344;14.530;2024-01-30T02:24:05;102353.06;;;4.22;65.95
49055;BME280;35405;52.344;14.530;2024-01-30T02:26:31;102353.19;;;4.25;65.87
49055;BME280;35405;52.344;14.530;2024-01-30T02:28:56;102353.16;;;4.24;66.21
49055;BME280;35405;52.344;14.530;2024-01-30T02:31:21;102347.84;;;4.21;66.17
49055;BME280;35405;52.344;14.530;2024-01-30T02:33:46;102344.75;;;4.31;66.08
49055;BME280;35405;52.344;14.530;2024-01-30T02:36:12;102345.50;;;4.28;65.81
49055;BME280;35405;52.344;14.530;2024-01-30T02:38:37;102336.03;;;4.29;65.79
49055;BME280;35405;52.344;14.530;2024-01-30T02:41:05;102347.34;;;4.31;65.79
49055;BME280;35405;52.344;14.530;2024-01-30T02:43:30;102344.69;;;4.29;65.78
49055;BME280;35405;52.344;14.530;2024-01-30T02:45:56;102352.19;;;4.22;65.97
49055;BME280;35405;52.344;14.530;2024-01-30T02:48:21;102357.59;;;4.28;65.90
49055;BME280;35405;52.344;14.530;2024-01-30T02:50:46;102352.31;;;4.25;65.86
49055;BME280;35405;52.344;14.530;2024-01-30T02:53:12;102348.84;;;4.24;65.71
49055;BME280;35405;52.344;14.530;2024-01-30T02:55:37;102348.06;;;4.27;66.09
49055;BME280;35405;52.344;14.530;2024-01-30T02:58:02;102355.88;;;4.28;65.53
49055;BME280;35405;52.344;14.530;2024-01-30T03:00:27;102358.34;;;4.24;65.71
49055;BME280;35405;52.344;14.530;2024-01-30T03:02:53;102345.28;;;4.22;65.94
49055;BME280;35405;52.344;14.530;2024-01-30T03:05:18;102347.84;;;4.21;65.54
49055;BME280;35405;52.344;14.530;2024-01-30T03:07:43;102349.59;;;4.22;65.43
49055;BME280;35405;52.344;14.530;2024-01-30T03:10:09;102349.56;;;4.20;65.52
49055;BME280;35405;52.344;14.530;2024-01-30T03:12:34;102349.50;;;4.19;65.36
49055;BME280;35405;52.344;14.530;2024-01-30T03:14:59;102355.56;;;4.19;65.84
49055;BME280;35405;52.344;14.530;2024-01-30T03:17:24;102346.03;;;4.18;65.93
49055;BME280;35405;52.344;14.530;2024-01-30T03:19:50;102344.41;;;4.22;65.60
49055;BME280;35405;52.344;14.530;2024-01-30T03:22:15;102337.28;;;4.14;65.44
49055;BME280;35405;52.344;14.530;2024-01-30T03:24:40;102342.53;;;4.16;65.72
49055;BME280;35405;52.344;14.530;2024-01-30T03:27:05;102342.44;;;4.14;65.95
49055;BME280;35405;52.344;14.530;2024-01-30T03:29:30;102344.16;;;4.14;66.27
49055;BME280;35405;52.344;14.530;2024-01-30T03:31:56;102342.31;;;4.10;66.08
49055;BME280;35405;52.344;14.530;2024-01-30T03:34:21;102346.66;;;4.11;65.91
49055;BME280;35405;52.344;14.530;2024-01-30T03:36:46;102341.25;;;4.05;66.39
49055;BME280;35405;52.344;14.530;2024-01-30T03:39:11;102349.03;;;4.05;66.91
49055;BME280;35405;52.344;14.530;2024-01-30T03:41:37;102349.91;;;4.05;66.31
49055;BME280;35405;52.344;14.530;2024-01-30T03:44:02;102345.41;;;4.00;66.62
49055;BME280;35405;52.344;14.530;2024-01-30T03:46:27;102348.59;;;3.93;66.46
49055;BME280;35405;52.344;14.530;2024-01-30T03:48:52;102344.53;;;3.99;66.83
49055;BME280;35405;52.344;14.530;2024-01-30T03:51:18;102343.63;;;3.99;66.18
49055;BME280;35405;52.344;14.530;2024-01-30T03:53:43;102335.91;;;4.00;66.41
49055;BME280;35405;52.344;14.530;2024-01-30T03:56:09;102339.38;;;4.01;66.93
49055;BME280;35405;52.344;14.530;2024-01-30T03:58:34;102332.50;;;4.01;66.57
49055;BME280;35405;52.344;14.530;2024-01-30T04:00:59;102338.75;;;4.08;65.93
49055;BME280;35405;52.344;14.530;2024-01-30T04:03:25;102337.00;;;4.07;65.86
49055;BME280;35405;52.344;14.530;2024-01-30T04:05:51;102337.84;;;4.06;66.16
49055;BME280;35405;52.344;14.530;2024-01-30T04:08:19;102331.75;;;4.04;66.27
49055;BME280;35405;52.344;14.530;2024-01-30T04:10:45;102329.66;;;3.94;66.51
49055;BME280;35405;52.344;14.530;2024-01-30T04:13:11;102334.78;;;3.92;66.60
49055;BME280;35405;52.344;14.530;2024-01-30T04:15:36;102329.41;;;3.88;67.10
49055;BME280;35405;52.344;14.530;2024-01-30T04:18:01;102329.16;;;3.80;66.51
49055;BME280;35405;52.344;14.530;2024-01-30T04:20:26;102328.19;;;3.76;67.25
49055;BME280;35405;52.344;14.530;2024-01-30T04:22:52;102335.81;;;3.73;67.20
49055;BME280;35405;52.344;14.530;2024-01-30T04:25:17;102328.06;;;3.73;67.46
49055;BME280;35405;52.344;14.530;2024-01-30T04:27:42;102332.31;;;3.71;67.43
49055;BME280;35405;52.344;14.530;2024-01-30T04:30:08;102331.47;;;3.72;67.78
49055;BME280;35405;52.344;14.530;2024-01-30T04:32:33;102329.66;;;3.70;67.49
49055;BME280;35405;52.344;14.530;2024-01-30T04:34:59;102331.34;;;3.68;67.69
49055;BME280;35405;52.344;14.530;2024-01-30T04:37:24;102324.31;;;3.65;67.82
49055;BME280;35405;52.344;14.530;2024-01-30T04:39:50;102322.56;;;3.64;67.80
49055;BME280;35405;52.344;14.530;2024-01-30T04:42:16;102321.59;;;3.61;67.62
49055;BME280;35405;52.344;14.530;2024-01-30T04:44:41;102318.03;;;3.58;68.09
49055;BME280;35405;52.344;14.530;2024-01-30T04:47:06;102314.69;;;3.61;68.01
49055;BME280;35405;52.344;14.530;2024-01-30T04:49:34;102317.13;;;3.56;67.78
49055;BME280;35405;52.344;14.530;2024-01-30T04:51:59;102313.81;;;3.61;67.88
49055;BME280;35405;52.344;14.530;2024-01-30T04:54:24;102320.53;;;3.55;68.27
49055;BME280;35405;52.344;14.530;2024-01-30T04:56:50;102324.81;;;3.55;68.22
49055;BME280;35405;52.344;14.530;2024-01-30T04:59:16;102321.47;;;3.57;68.15
49055;BME280;35405;52.344;14.530;2024-01-30T05:01:41;102323.44;;;3.65;67.87
49055;BME280;35405;52.344;14.530;2024-01-30T05:04:09;102327.88;;;3.67;68.12
49055;BME280;35405;52.344;14.530;2024-01-30T05:06:35;102323.66;;;3.71;67.92
49055;BME280;35405;52.344;14.530;2024-01-30T05:09:00;102329.00;;;3.75;67.78
49055;BME280;35405;52.344;14.530;2024-01-30T05:11:25;102330.66;;;3.73;67.84
49055;BME280;35405;52.344;14.530;2024-01-30T05:13:50;102326.16;;;3.68;67.77
49055;BME280;35405;52.344;14.530;2024-01-30T05:16:16;102326.91;;;3.65;68.11
49055;BME280;35405;52.344;14.530;2024-01-30T05:18:43;102328.66;;;3.66;68.20
49055;BME280;35405;52.344;14.530;2024-01-30T05:21:10;102329.22;;;3.57;67.96
49055;BME280;35405;52.344;14.530;2024-01-30T05:23:35;102336.59;;;3.47;68.36
49055;BME280;35405;52.344;14.530;2024-01-30T05:26:00;102338.38;;;3.48;68.44
49055;BME280;35405;52.344;14.530;2024-01-30T05:28:26;102329.81;;;3.50;68.36
49055;BME280;35405;52.344;14.530;2024-01-30T05:30:51;102328.91;;;3.48;68.53
49055;BME280;35405;52.344;14.530;2024-01-30T05:33:16;102330.56;;;3.46;68.64
49055;BME280;35405;52.344;14.530;2024-01-30T05:35:41;102330.66;;;3.49;68.34
49055;BME280;35405;52.344;14.530;2024-01-30T05:38:07;102329.53;;;3.43;68.36
49055;BME280;35405;52.344;14.530;2024-01-30T05:40:32;102327.78;;;3.42;68.60
49055;BME280;35405;52.344;14.530;2024-01-30T05:42:57;102331.06;;;3.38;68.46
49055;BME280;35405;52.344;14.530;2024-01-30T05:45:27;102330.47;;;3.45;68.76
49055;BME280;35405;52.344;14.530;2024-01-30T05:47:53;102336.47;;;3.44;68.70
49055;BME280;35405;52.344;14.530;2024-01-30T05:50:18;102341.88;;;3.50;68.59
49055;BME280;35405;52.344;14.530;2024-01-30T05:52:44;102338.41;;;3.49;68.58
49055;BME280;35405;52.344;14.530;2024-01-30T05:55:09;102334.50;;;3.37;68.71
49055;BME280;35405;52.344;14.530;2024-01-30T05:57:36;102337.03;;;3.35;68.73
49055;BME280;35405;52.344;14.530;2024-01-30T06:00:02;102338.41;;;3.25;68.76
49055;BME280;35405;52.344;14.530;2024-01-30T06:02:28;102341.97;;;3.29;68.79
49055;BME280;35405;52.344;14.530;2024-01-30T06:04:53;102346.25;;;3.28;69.04
49055;BME280;35405;52.344;14.530;2024-01-30T06:07:19;102341.72;;;3.23;68.88
49055;BME280;35405;52.344;14.530;2024-01-30T06:09:44;102340.84;;;3.22;68.88
49055;BME280;35405;52.344;14.530;2024-01-30T06:12:10;102347.41;;;3.37;68.73
49055;BME280;35405;52.344;14.530;2024-01-30T06:14:37;102341.56;;;3.41;68.55
49055;BME280;35405;52.344;14.530;2024-01-30T06:17:02;102345.94;;;3.43;68.64
49055;BME280;35405;52.344;14.530;2024-01-30T06:19:27;102349.03;;;3.33;68.50
49055;BME280;35405;52.344;14.530;2024-01-30T06:21:53;102349.72;;;3.29;69.08
49055;BME280;35405;52.344;14.530;2024-01-30T06:24:18;102351.44;;;3.28;69.21
49055;BME280;35405;52.344;14.530;2024-01-30T06:26:43;102347.69;;;3.20;69.12
49055;BME280;35405;52.344;14.530;2024-01-30T06:29:09;102348.78;;;3.27;69.30
49055;BME280;35405;52.344;14.530;2024-01-30T06:31:39;102343.63;;;3.27;68.80
49055;BME280;35405;52.344;14.530;2024-01-30T06:34:04;102342.75;;;3.26;69.21
49055;BME280;35405;52.344;14.530;2024-01-30T06:36:29;102346.41;;;3.32;68.93
49055;BME280;35405;52.344;14.530;2024-01-30T06:38:55;102347.00;;;3.24;69.17
49055;BME280;35405;52.344;14.530;2024-01-30T06:41:20;102343.34;;;3.19;69.35
49055;BME280;35405;52.344;14.530;2024-01-30T06:43:45;102341.44;;;3.15;69.61
49055;BME280;35405;52.344;14.530;2024-01-30T06:46:11;102341.19;;;3.09;69.83
49055;BME280;35405;52.344;14.530;2024-01-30T06:48:36;102346.38;;;3.09;70.06
49055;BME280;35405;52.344;14.530;2024-01-30T06:51:02;102337.97;;;3.15;70.24
49055;BME280;35405;52.344;14.530;2024-01-30T06:53:27;102336.47;;;3.20;69.84
49055;BME280;35405;52.344;14.530;2024-01-30T06:55:52;102337.00;;;3.11;69.92
49055;BME280;35405;52.344;14.530;2024-01-30T06:58:20;102340.41;;;3.10;70.29
49055;BME280;35405;52.344;14.530;2024-01-30T07:00:45;102341.28;;;3.11;70.06
49055;BME280;35405;52.344;14.530;2024-01-30T07:03:11;102346.03;;;3.22;70.41
49055;BME280;35405;52.344;14.530;2024-01-30T07:05:36;102346.41;;;3.32;70.01
49055;BME280;35405;52.344;14.530;2024-01-30T07:08:01;102344.25;;;3.44;70.12
49055;BME280;35405;52.344;14.530;2024-01-30T07:10:26;102340.13;;;3.49;69.78
49055;BME280;35405;52.344;14.530;2024-01-30T07:12:52;102344.19;;;3.42;70.21
49055;BME280;35405;52.344;14.530;2024-01-30T07:15:17;102343.31;;;3.42;70.36
49055;BME280;35405;52.344;14.530;2024-01-30T07:17:45;102338.09;;;3.40;70.24
49055;BME280;35405;52.344;14.530;2024-01-30T07:20:11;102331.75;;;3.32;70.53
49055;BME280;35405;52.344;14.530;2024-01-30T07:22:36;102333.13;;;3.24;70.67
49055;BME280;35405;52.344;14.530;2024-01-30T07:25:01;102333.56;;;3.35;70.85
49055;BME280;35405;52.344;14.530;2024-01-30T07:27:27;102331.19;;;3.41;70.39
49055;BME280;35405;52.344;14.530;2024-01-30T07:29:52;102328.91;;;3.48;70.24
49055;BME280;35405;52.344;14.530;2024-01-30T07:32:20;102328.47;;;3.60;70.25
49055;BME280;35405;52.344;14.530;2024-01-30T07:34:45;102325.19;;;3.66;70.11
49055;BME280;35405;52.344;14.530;2024-01-30T07:37:11;102320.09;;;3.67;69.93
49055;BME280;35405;52.344;14.530;2024-01-30T07:39:40;102321.38;;;3.80;69.79
49055;BME280;35405;52.344;14.530;2024-01-30T07:42:08;102317.44;;;3.90;69.56
49055;BME280;35405;52.344;14.530;2024-01-30T07:44:33;102322.91;;;3.99;69.36
49055;BME280;35405;52.344;14.530;2024-01-30T07:46:59;102320.28;;;3.97;69.12
49055;BME280;35405;52.344;14.530;2024-01-30T07:49:27;102322.03;;;3.98;69.46
49055;BME280;35405;52.344;14.530;2024-01-30T07:51:52;102319.47;;;3.98;69.78
49055;BME280;35405;52.344;14.530;2024-01-30T07:54:18;102320.97;;;4.17;69.71
49055;BME280;35405;52.344;14.530;2024-01-30T07:56:43;102321.91;;;4.19;69.81
49055;BME280;35405;52.344;14.530;2024-01-30T07:59:11;102319.72;;;4.06;69.56
49055;BME280;35405;52.344;14.530;2024-01-30T08:01:37;102318.13;;;4.09;69.89
49055;BME280;35405;52.344;14.530;2024-01-30T08:04:02;102322.47;;;4.10;69.92
49055;BME280;35405;52.344;14.530;2024-01-30T08:06:28;102325.53;;;4.24;70.10
49055;BME280;35405;52.344;14.530;2024-01-30T08:08:53;102324.13;;;4.34;69.68
49055;BME280;35405;52.344;14.530;2024-01-30T08:11:21;102319.84;;;4.36;69.59
49055;BME280;35405;52.344;14.530;2024-01-30T08:13:51;102323.59;;;4.44;69.30
49055;BME280;35405;52.344;14.530;2024-01-30T08:16:16;102317.72;;;4.50;68.72
49055;BME280;35405;52.344;14.530;2024-01-30T08:18:41;102320.53;;;4.57;69.15
49055;BME280;35405;52.344;14.530;2024-01-30T08:21:07;102317.53;;;4.71;68.69
49055;BME280;35405;52.344;14.530;2024-01-30T08:23:32;102316.63;;;4.70;68.82
49055;BME280;35405;52.344;14.530;2024-01-30T08:25:57;102315.28;;;4.81;68.99
49055;BME280;35405;52.344;14.530;2024-01-30T08:28:22;102312.97;;;4.90;68.93
49055;BME280;35405;52.344;14.530;2024-01-30T08:30:47;102316.00;;;5.06;68.51
49055;BME280;35405;52.344;14.530;2024-01-30T08:33:13;102306.47;;;5.05;68.23
49055;BME280;35405;52.344;14.530;2024-01-30T08:35:38;102307.63;;;5.14;67.82
49055;BME280;35405;52.344;14.530;2024-01-30T08:38:03;102310.50;;;5.23;67.99
49055;BME280;35405;52.344;14.530;2024-01-30T08:40:29;102305.31;;;5.23;67.51
49055;BME280;35405;52.344;14.530;2024-01-30T08:42:54;102309.81;;;5.29;67.15
49055;BME280;35405;52.344;14.530;2024-01-30T08:45:20;102301.63;;;5.45;67.98
49055;BME280;35405;52.344;14.530;2024-01-30T08:47:45;102302.44;;;5.76;67.65
49055;BME280;35405;52.344;14.530;2024-01-30T08:50:10;102304.69;;;5.94;66.88
49055;BME280;35405;52.344;14.530;2024-01-30T08:52:35;102299.94;;;6.11;66.37
49055;BME280;35405;52.344;14.530;2024-01-30T08:55:04;102300.31;;;6.26;66.04
49055;BME280;35405;52.344;14.530;2024-01-30T08:57:29;102307.53;;;6.36;66.08
49055;BME280;35405;52.344;14.530;2024-01-30T08:59:55;102308.56;;;6.44;65.57
49055;BME280;35405;52.344;14.530;2024-01-30T09:02:20;102306.28;;;6.56;65.43
49055;BME280;35405;52.344;14.530;2024-01-30T09:04:46;102302.84;;;6.57;65.79
49055;BME280;35405;52.344;14.530;2024-01-30T09:07:11;102293.16;;;6.52;65.40
49055;BME280;35405;52.344;14.530;2024-01-30T09:09:38;102296.44;;;6.43;65.40
49055;BME280;35405;52.344;14.530;2024-01-30T09:12:05;102287.91;;;6.49;65.24
49055;BME280;35405;52.344;14.530;2024-01-30T09:14:34;102290.22;;;6.38;64.96
49055;BME280;35405;52.344;14.530;2024-01-30T09:16:59;102292.63;;;6.30;64.80
49055;BME280;35405;52.344;14.530;2024-01-30T09:19:24;102285.91;;;6.39;65.06
49055;BME280;35405;52.344;14.530;2024-01-30T09:21:49;102287.09;;;6.53;64.76
49055;BME280;35405;52.344;14.530;2024-01-30T09:24:15;102279.84;;;6.76;65.05
49055;BME280;35405;52.344;14.530;2024-01-30T09:26:40;102279.88;;;6.77;64.27
49055;BME280;35405;52.344;14.530;2024-01-30T09:29:05;102285.34;;;6.89;63.81
49055;BME280;35405;52.344;14.530;2024-01-30T09:31:30;102280.31;;;6.97;63.80
49055;BME280;35405;52.344;14.530;2024-01-30T09:33:56;102281.16;;;6.96;64.01
49055;BME280;35405;52.344;14.530;2024-01-30T09:36:21;102281.44;;;7.08;63.95
49055;BME280;35405;52.344;14.530;2024-01-30T09:38:47;102272.03;;;7.15;63.60
49055;BME280;35405;52.344;14.530;2024-01-30T09:41:12;102266.31;;;7.33;63.24
49055;BME280;35405;52.344;14.530;2024-01-30T09:43:38;102264.97;;;7.53;62.86
49055;BME280;35405;52.344;14.530;2024-01-30T09:46:03;102263.28;;;7.55;62.65
49055;BME280;35405;52.344;14.530;2024-01-30T09:48:30;102266.84;;;7.60;61.93
49055;BME280;35405;52.344;14.530;2024-01-30T09:50:56;102273.88;;;7.64;62.03
49055;BME280;35405;52.344;14.530;2024-01-30T09:53:22;102272.19;;;7.68;62.48
49055;BME280;35405;52.344;14.530;2024-01-30T09:55:47;102279.19;;;7.69;61.67
49055;BME280;35405;52.344;14.530;2024-01-30T09:58:12;102269.91;;;7.85;61.86
49055;BME280;35405;52.344;14.530;2024-01-30T10:00:38;102268.94;;;7.80;61.06
49055;BME280;35405;52.344;14.530;2024-01-30T10:03:03;102266.22;;;7.74;61.17
49055;BME280;35405;52.344;14.530;2024-01-30T10:05:29;102266.09;;;7.67;61.54
49055;BME280;35405;52.344;14.530;2024-01-30T10:07:57;102260.94;;;7.69;61.61
49055;BME280;35405;52.344;14.530;2024-01-30T10:10:24;102272.13;;;7.63;61.63
49055;BME280;35405;52.344;14.530;2024-01-30T10:12:49;102271.28;;;7.66;61.41
49055;BME280;35405;52.344;14.530;2024-01-30T10:15:17;102266.91;;;7.63;61.65
49055;BME280;35405;52.344;14.530;2024-01-30T10:17:44;102262.63;;;7.67;61.88
49055;BME280;35405;52.344;14.530;2024-01-30T10:20:09;102264.47;;;7.72;61.08
49055;BME280;35405;52.344;14.530;2024-01-30T10:22:35;102257.00;;;7.91;61.14
49055;BME280;35405;52.344;14.530;2024-01-30T10:25:00;102261.56;;;8.04;60.94
49055;BME280;35405;52.344;14.530;2024-01-30T10:27:26;102260.66;;;8.02;61.01
49055;BME280;35405;52.344;14.530;2024-01-30T10:29:51;102253.81;;;8.10;60.35
49055;BME280;35405;52.344;14.530;2024-01-30T10:32:17;102261.06;;;8.26;61.05
49055;BME280;35405;52.344;14.530;2024-01-30T10:34:42;102255.84;;;8.26;60.46
49055;BME280;35405;52.344;14.530;2024-01-30T10:37:08;102251.41;;;8.19;60.20
49055;BME280;35405;52.344;14.530;2024-01-30T10:39:41;102249.72;;;8.24;60.44
49055;BME280;35405;52.344;14.530;2024-01-30T10:42:07;102249.03;;;8.35;60.58
49055;BME280;35405;52.344;14.530;2024-01-30T10:44:43;102244.50;;;8.24;59.82
49055;BME280;35405;52.344;14.530;2024-01-30T10:47:11;102237.63;;;8.28;60.66
49055;BME280;35405;52.344;14.530;2024-01-30T10:49:37;102236.91;;;8.37;60.57
49055;BME280;35405;52.344;14.530;2024-01-30T10:52:05;102242.31;;;8.49;60.30
49055;BME280;35405;52.344;14.530;2024-01-30T10:54:30;102240.66;;;8.54;60.25
49055;BME280;35405;52.344;14.530;2024-01-30T10:56:56;102238.16;;;8.62;59.95
49055;BME280;35405;52.344;14.530;2024-01-30T10:59:23;102240.19;;;8.83;59.90
49055;BME280;35405;52.344;14.530;2024-01-30T11:01:52;102240.28;;;8.89;59.71
49055;BME280;35405;52.344;14.530;2024-01-30T11:04:19;102236.75;;;8.87;58.95
49055;BME280;35405;52.344;14.530;2024-01-30T11:06:46;102241.16;;;8.91;58.21
49055;BME280;35405;52.344;14.530;2024-01-30T11:09:19;102232.56;;;8.98;58.22
49055;BME280;35405;52.344;14.530;2024-01-30T11:11:50;102242.16;;;8.99;57.48
49055;BME280;35405;52.344;14.530;2024-01-30T11:14:16;102233.41;;;8.95;57.40
49055;BME280;35405;52.344;14.530;2024-01-30T11:16:42;102223.84;;;8.96;56.50
49055;BME280;35405;52.344;14.530;2024-01-30T11:19:10;102232.66;;;9.04;56.86
49055;BME280;35405;52.344;14.530;2024-01-30T11:21:45;102218.72;;;9.05;56.25
49055;BME280;35405;52.344;14.530;2024-01-30T11:24:16;102231.88;;;9.13;56.25
49055;BME280;35405;52.344;14.530;2024-01-30T11:26:42;102227.53;;;9.13;55.64
49055;BME280;35405;52.344;14.530;2024-01-30T11:29:07;102225.88;;;9.20;55.46
49055;BME280;35405;52.344;14.530;2024-01-30T11:31:33;102225.00;;;9.22;55.27
49055;BME280;35405;52.344;14.530;2024-01-30T11:33:58;102227.59;;;9.19;54.89
49055;BME280;35405;52.344;14.530;2024-01-30T11:36:25;102225.00;;;9.22;54.76
49055;BME280;35405;52.344;14.530;2024-01-30T11:38:56;102223.31;;;9.26;54.76
49055;BME280;35405;52.344;14.530;2024-01-30T11:41:22;102220.81;;;9.33;54.83
49055;BME280;35405;52.344;14.530;2024-01-30T11:43:57;102213.97;;;9.45;54.76
49055;BME280;35405;52.344;14.530;2024-01-30T11:46:26;102213.97;;;9.48;54.51
49055;BME280;35405;52.344;14.530;2024-01-30T11:52:06;102187.94;;;9.55;54.47
49055;BME280;35405;52.344;14.530;2024-01-30T11:54:32;102189.81;;;9.72;54.74
49055;BME280;35405;52.344;14.530;2024-01-30T11:57:20;102189.81;;;9.69;53.87
49055;BME280;35405;52.344;14.530;2024-01-30T11:59:45;102181.22;;;9.83;54.21
49055;BME280;35405;52.344;14.530;2024-01-30T12:02:15;102173.38;;;9.83;54.19
49055;BME280;35405;52.344;14.530;2024-01-30T12:04:43;102172.50;;;9.83;53.98
49055;BME280;35405;52.344;14.530;2024-01-30T12:07:14;102171.50;;;9.70;53.90
49055;BME280;35405;52.344;14.530;2024-01-30T12:09:52;102173.19;;;9.59;53.47
49055;BME280;35405;52.344;14.530;2024-01-30T12:12:17;102167.09;;;9.64;53.74
49055;BME280;35405;52.344;14.530;2024-01-30T12:15:16;102178.53;;;9.77;53.91
49055;BME280;35405;52.344;14.530;2024-01-30T12:20:31;102176.91;;;9.88;53.64
49055;BME280;35405;52.344;14.530;2024-01-30T12:23:04;102175.16;;;9.89;53.20
49055;BME280;35405;52.344;14.530;2024-01-30T12:26:02;102167.44;;;10.06;53.35
49055;BME280;35405;52.344;14.530;2024-01-30T12:28:46;102160.50;;;10.11;53.26
49055;BME280;35405;52.344;14.530;2024-01-30T12:31:17;102161.44;;;10.17;53.33
49055;BME280;35405;52.344;14.530;2024-01-30T12:33:43;102165.88;;;10.23;53.18
49055;BME280;35405;52.344;14.530;2024-01-30T12:36:16;102160.66;;;10.26;53.10
49055;BME280;35405;52.344;14.530;2024-01-30T12:39:15;102162.47;;;10.42;52.79
49055;BME280;35405;52.344;14.530;2024-01-30T12:44:54;102160.81;;;10.51;52.98
49055;BME280;35405;52.344;14.530;2024-01-30T12:53:11;102138.13;;;10.53;52.49
49055;BME280;35405;52.344;14.530;2024-01-30T12:55:59;102140.66;;;10.37;52.73
49055;BME280;35405;52.344;14.530;2024-01-30T13:01:19;102133.66;;;10.33;52.61
49055;BME280;35405;52.344;14.530;2024-01-30T13:03:45;102134.47;;;10.25;52.36